Nearby METAR Reports

 

KDVT - Phoenix/Deer Vly, Arizona, USA
Distance from station: SW 14mi, 22km
Updated: 2021-04-18 19:53
Clear
Clear
 Wind from NNE
Wind: NNE 9 mph , 15 km/h
Temperature: 72°F , 22°C
Dew Point: 28°F , -2°C
Humidity: 20%
Barometer: 29.92 inHg , 1013.2 hPa
Clouds: Clear
Visibility: 10 miles , 16 km
2021/04/19 02:53 KDVT 190253Z 02008KT 10SM CLR 22/M02 A2992 RMK AO2 SLP115 T02171022 53015
KSDL - Scottsdale, Arizona, USA
Distance from station: S 15mi, 23km
Updated: 2021-04-18 19:53
Clear
Clear
 Wind from NNE
Wind: NNE 7 mph , 11 km/h
Temperature: 73°F , 23°C
Dew Point: 27°F , -3°C
Humidity: 17%
Barometer: 29.92 inHg , 1013.2 hPa
Clouds: Clear
Visibility: 10 miles , 16 km
2021/04/19 02:53 KSDL 190253Z 02006KT 10SM CLR 23/M03 A2992 RMK AO2 SLP113 T02331028 53013
KFFZ - Mesa/Falcon Fld, Arizona, USA
Distance from station: SSE 27mi, 44km
Updated: 2021-04-18 19:54
Clear
Clear
 Wind from ENE
Wind: ENE 8 mph , 13 km/h
Temperature: 73°F , 23°C
Dew Point: 30°F , -1°C
Humidity: 20%
Barometer: 29.90 inHg , 1012.5 hPa
Clouds: Clear
Visibility: 10 miles , 16 km
2021/04/19 02:54 KFFZ 190254Z 07007KT 10SM CLR 23/M01 A2990 RMK AO2 SLP105 T02281011 53012
 
KPHX - Phoenix/Sky Hrbr, Arizona, USA
Distance from station: SSW 28mi, 45km
Updated: 2021-04-18 19:51
Few Clouds
Few Clouds
 Wind from NNE
Wind: NNE 9 mph , 15 km/h
Temperature: 75°F , 24°C
Dew Point: 28°F , -2°C
Humidity: 18%
Barometer: 29.88 inHg , 1011.9 hPa
Clouds: Few Clouds
Visibility: 10 miles , 16 km
Cloud details: Few Clouds 10000 ft
Few Clouds 16000 ft
2021/04/19 02:51 KPHX 190251Z 03008KT 10SM FEW100 FEW160 24/M02 A2988 RMK AO2 SLP104 T02441022 53010
KLUF - Luke Afb/Glendal, Arizona, USA
Distance from station: SW 34mi, 55km
Updated: 2021-04-16 15:00
NOT Current
Mostly cloudy
Mostly cloudy
 Wind from varies
Wind: varies 7 mph , 11 km/h
Temperature: 82°F , 28°C
Dew Point: 25°F , -4°C
Humidity: 12%
Barometer: 29.87 inHg , 1011.5 hPa
Clouds: Mostly cloudy
Visibility: 7 miles , 11 km
Cloud details: Mostly cloudy 20000 ft
2021/04/16 22:00 KLUF 162200Z VRB06KT 7SM BKN200 28/M04 A2987 RMK SLPNO A02A WND DATA ESTMD ALSTG/SLP ESTMD 57010
KGYR - Goodyear Municip, Arizona, USA
Distance from station: SW 39mi, 63km
Updated: 2021-04-18 19:47
Few Clouds
Few Clouds
 Wind from NNE
Wind: NNE 8 mph , 13 km/h
Temperature: 77°F , 25°C
Dew Point: 27°F , -3°C
Humidity: 15%
Barometer: 29.89 inHg , 1012.2 hPa
Clouds: Few Clouds
Visibility: 10 miles , 16 km
Cloud details: Few Clouds 18000 ft
Few Clouds 25000 ft
2021/04/19 02:47 KGYR 190247Z 03007KT 10SM FEW180 FEW250 25/M03 A2989
 
KIWA - Chandler/Mesa, Arizona, USA
Distance from station: SSE 39mi, 63km
Updated: 2021-04-18 19:50
Mostly cloudy
Mostly cloudy
 Wind from E
Wind: E 13 mph , 20 km/h
Temperature: 73°F , 23°C
Dew Point: 28°F , -2°C
Humidity: 19%
Barometer: 29.91 inHg , 1012.9 hPa
Clouds: Mostly cloudy
Visibility: 10 miles , 16 km
Cloud details: Mostly cloudy 20000 ft
2021/04/19 02:50 KIWA 190250Z 09011KT 10SM BKN200 23/M02 A2991
KPAN - Payson, Arizona, USA
Distance from station: NE 44mi, 70km
Updated: 2021-04-18 20:15
Clear
Clear
 Wind from ENE
Wind: ENE 6 mph , 9 km/h, Gust: 14 mph , 22 km/h
Temperature: 50°F , 10°C
Wind Chill: 48°F , 9°C
Dew Point: 27°F , -3°C
Humidity: 40%
Barometer: 30.11 inHg , 1019.6 hPa
Clouds: Clear
Visibility: 10 miles , 16 km
2021/04/19 03:15 KPAN 190315Z AUTO 07005G12KT 10SM CLR 10/M03 A3011 RMK AO2
KBXK - Buckeye, Arizona, USA
Distance from station: WSW 53mi, 86km
Updated: 2021-04-18 20:15

 Wind from ENE
Wind: ENE 8 mph , 13 km/h
Temperature: 72°F , 22°C
Dew Point: 28°F , -2°C
Humidity: 20%
Barometer: 29.91 inHg , 1012.9 hPa
Visibility: 10 miles , 16 km
2021/04/19 03:15 KBXK 190315Z AUTO 07007KT 10SM 22/M02 A2991 RMK A01
 
KA39 - Maricopa Ak-Chin, Arizona, USA
Distance from station: S 58mi, 94km
Updated: 2021-04-18 19:55
Clear
Clear
 Wind from ENE
Wind: ENE 6 mph , 9 km/h
Temperature: 72°F , 22°C
Dew Point: 27°F , -3°C
Humidity: 19%
Barometer: 29.94 inHg , 1013.9 hPa
Clouds: Clear
Visibility: 10 miles , 16 km
2021/04/19 02:55 KA39 190255Z AUTO 07005KT 10SM CLR 22/M03 A2994 RMK AO2
KPRC - Prescott, Arizona, USA
Distance from station: NNW 64mi, 103km
Updated: 2021-04-18 19:53
Partly cloudy
Partly cloudy
 Wind from ENE
Wind: ENE 5 mph , 7 km/h
Temperature: 54°F , 12°C
Dew Point: 18°F , -8°C
Humidity: 24%
Barometer: 30.08 inHg , 1018.6 hPa
Clouds: Partly cloudy
Visibility: 10 miles , 16 km
Cloud details: Partly cloudy 10000 ft
2021/04/19 02:53 KPRC 190253Z 06004KT 10SM SCT100 12/M08 A3008 RMK AO2 SLP142 T01221083 53013
KSEZ - Sedona, Arizona, USA
Distance from station: N 71mi, 114km
Updated: 2021-04-18 19:55
Clear
Clear
 Wind from E
Wind: E 14 mph , 22 km/h, Gust: 18 mph , 30 km/h
Temperature: 55°F , 13°C
Dew Point: 25°F , -4°C
Humidity: 31%
Barometer: 30.08 inHg , 1018.6 hPa
Clouds: Clear
Visibility: 10 miles , 16 km
2021/04/19 02:55 KSEZ 190255Z AUTO 09012G16KT 10SM CLR 13/M04 A3008 RMK AO2
 
KFLG - Flagstaff, Arizona, USA
Distance from station: N 91mi, 147km
Updated: 2021-04-18 19:57
Clear
Clear
 Wind from E
Wind: E 6 mph , 9 km/h
Temperature: 45°F , 7°C
Wind Chill: 42°F , 6°C
Dew Point: 19°F , -7°C
Humidity: 37%
Barometer: 30.15 inHg , 1021 hPa
Clouds: Clear
Visibility: 10 miles , 16 km
2021/04/19 02:57 KFLG 190257Z 08005KT 10SM CLR 07/M07 A3015 RMK AO2 SLP167 T00671072 53013